createdAt,value
2023-04-25T00:00:27.157Z,51.31
2023-04-25T00:03:27.624Z,51.28
2023-04-25T00:06:20.044Z,51.40
2023-04-25T00:09:12.873Z,51.44
2023-04-25T00:12:09.246Z,51.56
2023-04-25T00:15:02.105Z,51.46
2023-04-25T00:17:55.109Z,51.54
2023-04-25T00:20:51.579Z,51.85
2023-04-25T00:26:53.669Z,52.06
2023-04-25T00:29:48.909Z,52.09
2023-04-25T00:32:41.642Z,51.93
2023-04-25T00:35:36.133Z,52.14
2023-04-25T00:38:28.735Z,52.29
2023-04-25T00:41:22.251Z,52.43
2023-04-25T00:44:03.968Z,52.53
2023-04-25T00:47:01.588Z,52.73
2023-04-25T00:49:54.971Z,52.76
2023-04-25T00:52:48.454Z,52.80
2023-04-25T00:55:42.003Z,53.09
2023-04-25T00:59:21.879Z,53.02
2023-04-25T01:02:15.087Z,53.30
2023-04-25T01:05:09.951Z,53.28
2023-04-25T01:08:06.256Z,53.43
2023-04-25T01:11:01.436Z,53.59
2023-04-25T01:13:44.698Z,53.66
2023-04-25T01:16:38.113Z,53.69
2023-04-25T01:19:31.808Z,53.69
2023-04-25T01:22:24.908Z,53.78
2023-04-25T01:25:19.208Z,53.92
2023-04-25T01:28:12.968Z,53.97
2023-04-25T01:31:06.996Z,53.93
2023-04-25T01:34:00.296Z,54.28
2023-04-25T01:36:47.728Z,54.37
2023-04-25T01:39:42.950Z,54.40
2023-04-25T01:42:36.879Z,54.42
2023-04-25T01:45:30.441Z,54.51
2023-04-25T01:48:17.474Z,54.72
2023-04-25T01:51:10.279Z,54.80
2023-04-25T01:53:58.381Z,54.89
2023-04-25T01:56:55.697Z,55.03
2023-04-25T01:59:49.387Z,55.13
2023-04-25T02:02:49.200Z,55.22
2023-04-25T02:05:45.772Z,55.17
2023-04-25T02:08:38.921Z,55.28
2023-04-25T02:11:32.709Z,55.36
2023-04-25T02:14:44.201Z,55.34
2023-04-25T02:17:55.220Z,55.32
2023-04-25T02:20:50.474Z,55.45
2023-04-25T02:23:34.591Z,55.36
2023-04-25T02:26:27.916Z,55.63
2023-04-25T02:29:22.979Z,55.48
2023-04-25T02:32:15.523Z,55.60
2023-04-25T02:35:09.423Z,55.80
2023-04-25T02:38:01.955Z,55.95
2023-04-25T02:40:54.788Z,55.99
2023-04-25T02:43:51.356Z,56.23
2023-04-25T02:46:44.383Z,56.27
2023-04-25T02:49:36.950Z,56.45
2023-04-25T02:52:30.238Z,56.44
2023-04-25T02:55:25.584Z,56.58
2023-04-25T02:59:14.359Z,56.42
2023-04-25T03:02:30.851Z,56.52
2023-04-25T03:05:24.869Z,56.55
2023-04-25T03:08:17.569Z,56.56
2023-04-25T03:11:13.201Z,56.69
2023-04-25T03:14:06.092Z,56.67
2023-04-25T03:16:58.758Z,56.75
2023-04-25T03:19:53.114Z,56.85
2023-04-25T03:22:46.134Z,56.92
2023-04-25T03:25:39.112Z,56.93
2023-04-25T03:28:32.171Z,57.11
2023-04-25T03:31:35.104Z,57.22
2023-04-25T03:34:18.111Z,57.16
2023-04-25T03:37:10.870Z,57.38
2023-04-25T03:40:03.769Z,57.29
2023-04-25T03:42:57.409Z,57.41
2023-04-25T03:45:52.487Z,57.42
2023-04-25T03:48:55.690Z,57.53
2023-04-25T03:51:48.341Z,57.62
2023-04-25T03:54:43.284Z,57.63
2023-04-25T03:57:39.154Z,57.68
2023-04-25T04:00:41.814Z,57.75
2023-04-25T04:03:35.517Z,57.70
2023-04-25T04:06:22.798Z,57.69
2023-04-25T04:09:23.539Z,57.87
2023-04-25T04:12:17.440Z,57.91
2023-04-25T04:15:13.020Z,57.96
2023-04-25T04:18:10.062Z,57.90
2023-04-25T04:21:03.709Z,57.99
2023-04-25T04:23:55.425Z,58.06
2023-04-25T04:26:52.548Z,58.05
2023-04-25T04:30:09.708Z,58.03
2023-04-25T04:33:03.676Z,58.10
2023-04-25T04:35:59.013Z,58.16
2023-04-25T04:38:55.121Z,58.33
2023-04-25T04:41:49.717Z,58.41
2023-04-25T04:44:41.530Z,58.39
2023-04-25T04:47:38.906Z,58.45
2023-04-25T04:50:37.995Z,58.39
2023-04-25T04:53:31.505Z,58.65
2023-04-25T04:56:26.054Z,58.59
2023-04-25T04:59:23.907Z,58.71
2023-04-25T05:02:30.671Z,58.78
2023-04-25T05:05:23.689Z,58.86
2023-04-25T05:08:19.895Z,59.01
2023-04-25T05:11:14.503Z,58.94
2023-04-25T05:14:08.078Z,59.02
2023-04-25T05:17:14.155Z,58.89
2023-04-25T05:20:10.514Z,58.88
2023-04-25T05:23:11.113Z,59.02
2023-04-25T05:26:02.990Z,59.10
2023-04-25T05:29:07.416Z,59.18
2023-04-25T05:32:08.871Z,59.30
2023-04-25T05:35:03.974Z,59.32
2023-04-25T05:37:59.042Z,59.49
2023-04-25T05:40:53.166Z,59.54
2023-04-25T05:44:00.530Z,59.64
2023-04-25T05:46:57.024Z,59.48
2023-04-25T05:49:58.890Z,59.64
2023-04-25T05:53:09.967Z,59.79
2023-04-25T05:56:03.028Z,59.75
2023-04-25T05:58:56.697Z,59.70
2023-04-25T06:01:44.873Z,59.68
2023-04-25T06:04:38.441Z,59.57
2023-04-25T06:07:33.195Z,59.97
2023-04-25T06:10:27.112Z,59.95
2023-04-25T06:13:25.190Z,60.13
2023-04-25T06:16:17.810Z,60.19
2023-04-25T06:19:10.617Z,60.05
2023-04-25T06:22:06.044Z,60.11
2023-04-25T06:25:01.814Z,60.08
2023-04-25T06:28:01.922Z,60.05
2023-04-25T06:35:24.717Z,60.14
2023-04-25T06:38:21.471Z,60.22
2023-04-25T06:41:17.885Z,60.24
2023-04-25T06:44:18.636Z,60.33
2023-04-25T06:47:28.068Z,60.29
2023-04-25T06:50:16.158Z,60.27
2023-04-25T06:53:09.990Z,60.36
2023-04-25T06:56:08.913Z,60.38
2023-04-25T06:59:06.713Z,60.58
2023-04-25T07:02:06.675Z,60.62
2023-04-25T07:05:01.247Z,60.70
2023-04-25T07:08:16.456Z,60.82
2023-04-25T07:11:13.406Z,60.77
2023-04-25T07:14:06.142Z,60.70
2023-04-25T07:21:54.130Z,60.72
2023-04-25T07:24:50.161Z,60.77
2023-04-25T07:27:42.639Z,60.86
2023-04-25T07:30:36.273Z,60.96
2023-04-25T07:33:34.122Z,61.03
2023-04-25T07:36:38.565Z,61.19
2023-04-25T07:39:31.122Z,61.38
2023-04-25T07:42:27.441Z,61.26
2023-04-25T07:45:20.221Z,61.26
2023-04-25T07:48:13.088Z,61.01
2023-04-25T07:50:58.143Z,61.07
2023-04-25T07:53:54.350Z,61.14
2023-04-25T07:57:01.867Z,61.18
2023-04-25T08:00:17.791Z,60.92
2023-04-25T08:03:13.747Z,60.97
2023-04-25T08:06:13.690Z,61.01
2023-04-25T08:09:09.969Z,61.22
2023-04-25T08:12:04.119Z,61.40
2023-04-25T08:14:59.265Z,61.37
2023-04-25T08:17:53.093Z,61.18
2023-04-25T08:20:57.259Z,61.42
2023-04-25T08:23:53.542Z,61.27
2023-04-25T08:27:00.136Z,61.35
2023-04-25T08:29:54.671Z,61.48
2023-04-25T08:32:47.917Z,61.43
2023-04-25T08:35:55.495Z,61.52
2023-04-25T08:38:43.246Z,61.61
2023-04-25T08:42:09.590Z,61.47
2023-04-25T08:45:07.140Z,61.37
2023-04-25T08:48:09.807Z,61.64
2023-04-25T08:51:03.927Z,61.55
2023-04-25T08:54:06.374Z,61.49
2023-04-25T08:57:15.106Z,61.54
2023-04-25T09:00:12.173Z,61.56
2023-04-25T09:03:08.165Z,61.80
2023-04-25T09:06:02.696Z,61.72
2023-04-25T09:08:57.369Z,61.67
2023-04-25T09:11:46.041Z,61.54
2023-04-25T09:14:39.011Z,61.66
2023-04-25T09:17:33.094Z,61.62
2023-04-25T09:20:26.048Z,61.85
2023-04-25T09:23:22.556Z,61.71
2023-04-25T09:26:20.629Z,61.79
2023-04-25T09:29:14.013Z,61.79
2023-04-25T09:32:22.075Z,61.83
2023-04-25T09:35:32.420Z,61.90
2023-04-25T09:38:25.516Z,61.88
2023-04-25T09:41:27.601Z,62.05
2023-04-25T09:44:28.704Z,61.81
2023-04-25T09:47:28.056Z,62.05
2023-04-25T09:50:21.759Z,61.99
2023-04-25T09:53:16.186Z,62.01
2023-04-25T09:56:13.160Z,61.94
2023-04-25T09:59:08.277Z,62.07
2023-04-25T10:02:02.720Z,62.19
2023-04-25T10:04:57.589Z,62.16
2023-04-25T10:08:00.431Z,61.99
2023-04-25T10:10:56.987Z,61.91
2023-04-25T10:13:58.889Z,61.93
2023-04-25T10:16:54.915Z,62.05
2023-04-25T10:19:48.624Z,62.08
2023-04-25T10:22:43.878Z,61.93
2023-04-25T10:26:15.706Z,62.12
2023-04-25T10:32:19.173Z,62.15
2023-04-25T10:35:17.858Z,62.22
2023-04-25T10:38:16.479Z,62.26
2023-04-25T10:41:12.496Z,62.20
2023-04-25T10:44:08.484Z,62.14
2023-04-25T10:47:03.370Z,62.23
2023-04-25T10:49:57.332Z,62.31
2023-04-25T10:52:51.948Z,62.32
2023-04-25T10:55:55.905Z,62.19
2023-04-25T10:58:51.314Z,62.14
2023-04-25T11:01:48.932Z,62.39
2023-04-25T11:04:45.183Z,62.49
2023-04-25T11:07:52.874Z,62.27
2023-04-25T11:10:54.313Z,62.38
2023-04-25T11:14:01.909Z,62.53
2023-04-25T11:17:04.260Z,62.42
2023-04-25T11:20:43.211Z,62.63
2023-04-25T11:24:33.428Z,62.33
2023-04-25T11:27:27.950Z,62.39
2023-04-25T11:31:36.360Z,62.63
2023-04-25T11:34:31.988Z,62.53
2023-04-25T11:37:26.594Z,62.45
2023-04-25T11:40:19.711Z,62.34
2023-04-25T11:43:13.329Z,62.36
2023-04-25T11:46:10.780Z,62.23
2023-04-25T11:49:04.211Z,62.40
2023-04-25T11:51:59.026Z,62.29
2023-04-25T11:54:52.172Z,62.12
2023-04-25T11:57:48.414Z,62.08
2023-04-25T12:00:50.132Z,62.07
2023-04-25T12:04:44.858Z,62.10
2023-04-25T12:07:07.936Z,62.07
2023-04-25T12:10:01.077Z,62.25
2023-04-25T12:12:57.136Z,62.17
2023-04-25T12:15:51.263Z,62.15
2023-04-25T12:19:06.293Z,62.20
2023-04-25T12:24:48.813Z,62.25
2023-04-25T12:27:34.808Z,62.33
2023-04-25T12:30:28.193Z,62.15
2023-04-25T12:33:21.314Z,62.15
2023-04-25T12:36:15.699Z,62.28
2023-04-25T12:39:09.038Z,62.22
2023-04-25T12:42:06.847Z,62.27
2023-04-25T12:45:01.333Z,62.28
2023-04-25T12:47:55.148Z,62.20
2023-04-25T12:50:54.522Z,62.24
2023-04-25T12:53:50.395Z,62.22
2023-04-25T12:57:07.044Z,61.94
2023-04-25T13:00:02.020Z,62.16
2023-04-25T13:02:57.521Z,62.09
2023-04-25T13:05:51.944Z,62.05
2023-04-25T13:08:44.709Z,62.09
2023-04-25T13:11:38.673Z,62.12
2023-04-25T13:14:32.621Z,62.15
2023-04-25T13:17:26.897Z,62.21
2023-04-25T13:20:23.588Z,62.28
2023-04-25T13:23:17.470Z,62.16
2023-04-25T13:26:09.793Z,62.24
2023-04-25T13:29:04.930Z,62.06
2023-04-25T13:31:57.524Z,61.96
2023-04-25T13:34:56.389Z,61.99
2023-04-25T13:37:49.021Z,62.18
2023-04-25T13:40:41.651Z,62.15
2023-04-25T13:43:36.185Z,62.03
2023-04-25T13:46:48.521Z,62.17
2023-04-25T13:49:40.208Z,62.19
2023-04-25T13:52:33.101Z,62.21
2023-04-25T13:55:26.717Z,62.29
2023-04-25T13:58:24.925Z,62.44
2023-04-25T14:01:18.224Z,62.24
2023-04-25T14:04:12.716Z,61.93
2023-04-25T14:07:06.252Z,61.95
2023-04-25T14:10:01.036Z,62.22
2023-04-25T14:12:53.641Z,62.27
2023-04-25T14:15:47.339Z,62.29
2023-04-25T14:18:39.868Z,62.34
2023-04-25T14:22:35.409Z,62.43
2023-04-25T14:25:35.097Z,62.27
2023-04-25T14:28:03.092Z,62.18
2023-04-25T14:30:56.560Z,62.36
2023-04-25T14:33:52.432Z,62.29
2023-04-25T14:36:45.838Z,62.17
2023-04-25T14:39:39.424Z,62.09
2023-04-25T14:42:33.422Z,62.29
2023-04-25T14:45:27.895Z,62.21
2023-04-25T14:48:24.881Z,62.18
2023-04-25T14:51:39.004Z,62.23
2023-04-25T14:54:31.627Z,62.28
2023-04-25T14:57:29.384Z,62.35
2023-04-25T15:00:26.528Z,62.42
2023-04-25T15:03:20.888Z,62.58
2023-04-25T15:06:14.013Z,62.65
2023-04-25T15:09:07.581Z,62.49
2023-04-25T15:12:01.748Z,62.60
2023-04-25T15:14:55.271Z,62.69
2023-04-25T15:17:49.640Z,62.55
2023-04-25T15:20:42.970Z,62.64
2023-04-25T15:23:36.224Z,62.59
2023-04-25T15:26:29.856Z,62.59
2023-04-25T15:29:16.771Z,62.64
2023-04-25T15:32:09.781Z,62.77
2023-04-25T15:35:04.802Z,62.76
2023-04-25T15:38:00.308Z,62.80
2023-04-25T15:40:57.805Z,62.84
2023-04-25T15:43:51.780Z,62.96
2023-04-25T15:46:48.171Z,62.88
2023-04-25T15:49:41.583Z,62.84
2023-04-25T15:52:34.184Z,62.84
2023-04-25T15:55:27.957Z,62.92
2023-04-25T15:58:20.652Z,62.93
2023-04-25T16:01:13.856Z,62.82
2023-04-25T16:04:07.337Z,63.01
2023-04-25T16:06:59.917Z,62.89
2023-04-25T16:09:52.687Z,62.96
2023-04-25T16:12:45.657Z,62.96
2023-04-25T16:15:38.050Z,62.98
2023-04-25T16:18:32.324Z,62.90
2023-04-25T16:21:24.843Z,63.20
2023-04-25T16:24:18.241Z,63.21
2023-04-25T16:27:10.924Z,63.11
2023-04-25T16:30:03.878Z,63.19
2023-04-25T16:32:58.118Z,63.23
2023-04-25T16:35:52.750Z,63.35
2023-04-25T16:38:49.264Z,63.32
2023-04-25T16:41:42.775Z,63.34
2023-04-25T16:44:35.578Z,63.28
2023-04-25T16:47:28.695Z,63.45
2023-04-25T16:50:21.978Z,63.31
2023-04-25T16:53:14.960Z,63.38
2023-04-25T16:56:08.495Z,63.48
2023-04-25T16:59:02.420Z,63.56
2023-04-25T17:01:58.225Z,63.49
2023-04-25T17:04:51.403Z,63.62
2023-04-25T17:07:44.061Z,63.59
2023-04-25T17:10:37.039Z,63.56
2023-04-25T17:13:30.994Z,63.53
2023-04-25T17:16:25.637Z,63.71
2023-04-25T17:19:22.133Z,63.63
2023-04-25T17:22:15.187Z,63.68
2023-04-25T17:25:10.032Z,63.72
2023-04-25T17:28:03.162Z,63.70
2023-04-25T17:30:58.680Z,63.79
2023-04-25T17:33:51.828Z,63.79
2023-04-25T17:36:44.287Z,63.90
2023-04-25T17:39:37.328Z,63.97
2023-04-25T17:42:30.894Z,63.98
2023-04-25T17:45:24.073Z,63.95
2023-04-25T17:48:16.886Z,64.16
2023-04-25T17:51:09.712Z,64.12
2023-04-25T17:54:02.622Z,64.06
2023-04-25T17:56:57.122Z,64.19
2023-04-25T17:59:49.887Z,64.03
2023-04-25T18:02:42.504Z,64.15
2023-04-25T18:05:34.997Z,64.14
2023-04-25T18:08:28.033Z,64.28
2023-04-25T18:11:20.806Z,64.28
2023-04-25T18:14:15.538Z,64.25
2023-04-25T18:17:09.148Z,64.26
2023-04-25T18:20:02.074Z,64.42
2023-04-25T18:22:54.558Z,64.32
2023-04-25T18:25:54.818Z,64.31
2023-04-25T18:28:48.913Z,64.49
2023-04-25T18:31:43.640Z,64.41
2023-04-25T18:34:36.454Z,64.44
2023-04-25T18:37:30.779Z,64.48
2023-04-25T18:40:23.315Z,64.45
2023-04-25T18:43:16.327Z,64.55
2023-04-25T18:46:09.221Z,64.57
2023-04-25T18:49:04.124Z,64.72
2023-04-25T18:51:57.548Z,64.76
2023-04-25T18:54:53.813Z,64.69
2023-04-25T18:57:50.039Z,64.88
2023-04-25T19:00:42.830Z,64.64
2023-04-25T19:03:28.706Z,64.74
2023-04-25T19:06:24.359Z,64.79
2023-04-25T19:09:18.614Z,64.81
2023-04-25T19:12:12.460Z,64.92
2023-04-25T19:14:59.336Z,64.93
2023-04-25T19:17:53.632Z,64.96
2023-04-25T19:20:49.620Z,64.88
2023-04-25T19:23:35.882Z,64.92
2023-04-25T19:26:28.637Z,65.03
2023-04-25T19:29:22.065Z,65.03
2023-04-25T19:32:16.139Z,65.07
2023-04-25T19:35:11.821Z,65.08
2023-04-25T19:38:04.547Z,65.17
2023-04-25T19:40:57.952Z,65.23
2023-04-25T19:43:51.739Z,65.13
2023-04-25T19:46:49.996Z,65.22
2023-04-25T19:49:43.656Z,65.27
2023-04-25T19:52:38.243Z,65.24
2023-04-25T19:55:30.956Z,65.13
2023-04-25T19:58:23.998Z,65.23
2023-04-25T20:01:22.832Z,65.28
2023-04-25T20:04:18.854Z,65.23
2023-04-25T20:07:11.300Z,65.21
2023-04-25T20:10:06.931Z,65.14
2023-04-25T20:13:00.033Z,65.30
2023-04-25T20:15:53.942Z,65.42
2023-04-25T20:18:48.462Z,65.43
2023-04-25T20:21:41.338Z,65.40
2023-04-25T20:24:34.114Z,65.42
2023-04-25T20:27:28.034Z,65.66
2023-04-25T20:30:23.678Z,65.56
2023-04-25T20:33:16.186Z,65.64
2023-04-25T20:36:10.126Z,65.51
2023-04-25T20:39:05.865Z,65.54
2023-04-25T20:42:03.251Z,65.68
2023-04-25T20:44:57.434Z,65.87
2023-04-25T20:47:50.240Z,65.99
2023-04-25T20:50:49.614Z,65.90
2023-04-25T20:53:41.778Z,65.69
2023-04-25T20:56:37.228Z,65.82
2023-04-25T20:59:29.860Z,65.79
2023-04-25T21:02:22.371Z,65.86
2023-04-25T21:05:14.937Z,65.83
2023-04-25T21:08:09.014Z,66.03
2023-04-25T21:11:10.798Z,65.82
2023-04-25T21:14:07.316Z,65.89
2023-04-25T21:17:02.135Z,65.82
2023-04-25T21:19:54.790Z,65.97
2023-04-25T21:22:53.018Z,65.97
2023-04-25T21:25:51.907Z,65.95
2023-04-25T21:28:44.723Z,66.04
2023-04-25T21:31:38.072Z,66.06
2023-04-25T21:34:31.112Z,66.07
2023-04-25T21:37:24.556Z,66.12
2023-04-25T21:40:18.943Z,66.20
2023-04-25T21:43:12.275Z,66.13
2023-04-25T21:46:22.116Z,66.15
2023-04-25T21:49:19.623Z,66.15
2023-04-25T21:52:12.572Z,66.22
2023-04-25T21:55:05.983Z,66.38
2023-04-25T21:57:58.808Z,66.32
2023-04-25T22:00:52.991Z,66.33
2023-04-25T22:03:39.965Z,66.33
2023-04-25T22:06:33.286Z,66.21
2023-04-25T22:09:26.005Z,66.14
2023-04-25T22:12:19.103Z,66.17
2023-04-25T22:15:14.069Z,66.17
2023-04-25T22:18:07.065Z,66.24
2023-04-25T22:21:01.456Z,66.25
2023-04-25T22:23:54.032Z,66.26
2023-04-25T22:26:49.480Z,66.32
2023-04-25T22:29:42.447Z,66.40
2023-04-25T22:32:34.950Z,66.49
2023-04-25T22:35:20.758Z,66.47
2023-04-25T22:38:13.257Z,66.55
2023-04-25T22:41:07.202Z,66.54
2023-04-25T22:44:02.923Z,66.38
2023-04-25T22:47:02.888Z,66.66
2023-04-25T22:49:58.139Z,66.53
2023-04-25T22:52:50.919Z,66.77
2023-04-25T22:55:44.599Z,66.57
2023-04-25T22:58:38.577Z,66.63
2023-04-25T23:01:31.856Z,66.73
2023-04-25T23:04:14.955Z,66.75
2023-04-25T23:07:07.775Z,66.90
2023-04-25T23:10:01.201Z,66.91
2023-04-25T23:12:57.110Z,66.83
2023-04-25T23:15:51.306Z,66.76
2023-04-25T23:18:39.419Z,66.93
2023-04-25T23:21:32.294Z,66.89
2023-04-25T23:24:26.133Z,66.96
2023-04-25T23:27:18.617Z,66.88
2023-04-25T23:30:13.719Z,66.99
2023-04-25T23:33:06.090Z,67.08
2023-04-25T23:35:51.921Z,66.96
2023-04-25T23:38:45.179Z,66.98
2023-04-25T23:41:38.672Z,66.99
2023-04-25T23:44:31.984Z,67.16
2023-04-25T23:47:25.596Z,67.29
2023-04-25T23:50:18.858Z,67.25
2023-04-25T23:53:14.293Z,67.24
2023-04-25T23:56:11.100Z,67.20
2023-04-25T23:58:57.906Z,67.17
